Folly Beach, South Carolina
Current Conditions -  °F | °C
As of 3:55 PM on Tuesday 21 Oct 2014 (Local Time) from KJZI Reporting Station
Clear Clear  
Wind Chill: 79°   Ceiling: Unl
Heat Index: 80°   Visibility: 10mi
Dew Point: 57°   Wind: 8mph
Humidity: 47%   Direction: 230°SW
Pressure: 29.87"   Gusts: NA
Location:  32.66°N, 79.94°W
Report Text: KJZI 211955Z AUTO 23007KT 10SM CLR 26/14 A2987 RMK A02 P000
Loading
Personal Weather Stations






























Interactive Weather Map
Tropical Storm Tracking
New forecast layout! Learn more

10-Day Weather Forecast

Advertisements
Track Severe Weather on mobile